sensor_id;sensor_type;location;lat;lon;timestamp;P1;durP1;ratioP1;P2;durP2;ratioP2
6300;SDS011;3183;51.010;6.898;2023-05-10T00:01:40;17.63;;;9.50;;
6300;SDS011;3183;51.010;6.898;2023-05-10T00:04:07;15.83;;;9.23;;
6300;SDS011;3183;51.010;6.898;2023-05-10T00:06:34;13.77;;;8.53;;
6300;SDS011;3183;51.010;6.898;2023-05-10T00:09:01;15.50;;;8.97;;
6300;SDS011;3183;51.010;6.898;2023-05-10T00:11:28;13.87;;;8.80;;
6300;SDS011;3183;51.010;6.898;2023-05-10T00:13:55;18.00;;;8.87;;
6300;SDS011;3183;51.010;6.898;2023-05-10T00:16:22;14.73;;;9.80;;
6300;SDS011;3183;51.010;6.898;2023-05-10T00:18:51;14.37;;;9.07;;
6300;SDS011;3183;51.010;6.898;2023-05-10T00:21:18;12.77;;;8.70;;
6300;SDS011;3183;51.010;6.898;2023-05-10T00:23:45;13.33;;;7.73;;
6300;SDS011;3183;51.010;6.898;2023-05-10T00:26:12;15.77;;;8.80;;
6300;SDS011;3183;51.010;6.898;2023-05-10T00:28:39;14.50;;;9.47;;
6300;SDS011;3183;51.010;6.898;2023-05-10T00:31:07;13.60;;;8.60;;
6300;SDS011;3183;51.010;6.898;2023-05-10T00:33:34;13.57;;;8.90;;
6300;SDS011;3183;51.010;6.898;2023-05-10T00:36:02;15.57;;;9.00;;
6300;SDS011;3183;51.010;6.898;2023-05-10T00:38:32;17.10;;;9.03;;
6300;SDS011;3183;51.010;6.898;2023-05-10T00:40:59;13.90;;;8.05;;
6300;SDS011;3183;51.010;6.898;2023-05-10T00:43:27;16.63;;;9.07;;
6300;SDS011;3183;51.010;6.898;2023-05-10T00:45:54;16.00;;;9.83;;
6300;SDS011;3183;51.010;6.898;2023-05-10T00:48:21;18.70;;;9.10;;
6300;SDS011;3183;51.010;6.898;2023-05-10T00:50:48;15.60;;;9.30;;
6300;SDS011;3183;51.010;6.898;2023-05-10T00:53:17;17.57;;;9.43;;
6300;SDS011;3183;51.010;6.898;2023-05-10T00:55:44;17.80;;;10.10;;
6300;SDS011;3183;51.010;6.898;2023-05-10T00:58:11;19.20;;;10.43;;
6300;SDS011;3183;51.010;6.898;2023-05-10T01:00:39;15.20;;;9.57;;
6300;SDS011;3183;51.010;6.898;2023-05-10T01:03:08;16.10;;;10.13;;
6300;SDS011;3183;51.010;6.898;2023-05-10T01:05:36;17.63;;;9.30;;
6300;SDS011;3183;51.010;6.898;2023-05-10T01:08:03;20.20;;;10.60;;
6300;SDS011;3183;51.010;6.898;2023-05-10T01:10:32;16.77;;;9.60;;
6300;SDS011;3183;51.010;6.898;2023-05-10T01:12:59;14.75;;;9.15;;
6300;SDS011;3183;51.010;6.898;2023-05-10T01:15:27;17.73;;;10.30;;
6300;SDS011;3183;51.010;6.898;2023-05-10T01:17:54;16.80;;;10.60;;
6300;SDS011;3183;51.010;6.898;2023-05-10T01:20:22;19.83;;;10.57;;
6300;SDS011;3183;51.010;6.898;2023-05-10T01:28:23;17.60;;;9.50;;
6300;SDS011;3183;51.010;6.898;2023-05-10T01:31:08;15.87;;;10.13;;
6300;SDS011;3183;51.010;6.898;2023-05-10T01:33:43;14.57;;;8.80;;
6300;SDS011;3183;51.010;6.898;2023-05-10T01:36:15;12.90;;;8.77;;
6300;SDS011;3183;51.010;6.898;2023-05-10T01:38:51;11.30;;;7.83;;
6300;SDS011;3183;51.010;6.898;2023-05-10T01:41:25;13.65;;;8.02;;
6300;SDS011;3183;51.010;6.898;2023-05-10T01:43:56;12.27;;;5.90;;
6300;SDS011;3183;51.010;6.898;2023-05-10T01:46:26;11.33;;;5.90;;
6300;SDS011;3183;51.010;6.898;2023-05-10T01:49:02;12.40;;;5.73;;
6300;SDS011;3183;51.010;6.898;2023-05-10T01:51:31;12.40;;;5.90;;
6300;SDS011;3183;51.010;6.898;2023-05-10T01:54:03;10.47;;;5.80;;
6300;SDS011;3183;51.010;6.898;2023-05-10T01:56:32;13.47;;;7.37;;
6300;SDS011;3183;51.010;6.898;2023-05-10T01:59:00;13.87;;;7.10;;
6300;SDS011;3183;51.010;6.898;2023-05-10T02:01:30;8.70;;;5.90;;
6300;SDS011;3183;51.010;6.898;2023-05-10T02:03:57;13.20;;;5.53;;
6300;SDS011;3183;51.010;6.898;2023-05-10T02:06:26;14.90;;;6.70;;
6300;SDS011;3183;51.010;6.898;2023-05-10T02:08:53;12.43;;;6.27;;
6300;SDS011;3183;51.010;6.898;2023-05-10T02:11:21;8.07;;;5.13;;
6300;SDS011;3183;51.010;6.898;2023-05-10T02:13:50;10.20;;;5.43;;
6300;SDS011;3183;51.010;6.898;2023-05-10T02:16:18;10.90;;;5.17;;
6300;SDS011;3183;51.010;6.898;2023-05-10T02:18:50;11.77;;;6.53;;
6300;SDS011;3183;51.010;6.898;2023-05-10T02:21:19;10.67;;;6.33;;
6300;SDS011;3183;51.010;6.898;2023-05-10T02:23:48;13.67;;;6.60;;
6300;SDS011;3183;51.010;6.898;2023-05-10T02:26:16;9.77;;;5.60;;
6300;SDS011;3183;51.010;6.898;2023-05-10T02:28:45;13.03;;;6.80;;
6300;SDS011;3183;51.010;6.898;2023-05-10T02:31:12;11.17;;;6.27;;
6300;SDS011;3183;51.010;6.898;2023-05-10T02:33:39;15.50;;;6.90;;
6300;SDS011;3183;51.010;6.898;2023-05-10T02:36:08;12.07;;;6.73;;
6300;SDS011;3183;51.010;6.898;2023-05-10T02:38:35;13.30;;;7.03;;
6300;SDS011;3183;51.010;6.898;2023-05-10T02:41:04;16.10;;;8.10;;
6300;SDS011;3183;51.010;6.898;2023-05-10T02:43:32;19.10;;;8.80;;
6300;SDS011;3183;51.010;6.898;2023-05-10T02:46:00;16.63;;;9.03;;
6300;SDS011;3183;51.010;6.898;2023-05-10T02:48:28;19.20;;;7.90;;
6300;SDS011;3183;51.010;6.898;2023-05-10T02:50:56;12.40;;;7.60;;
6300;SDS011;3183;51.010;6.898;2023-05-10T02:53:28;15.27;;;8.17;;
6300;SDS011;3183;51.010;6.898;2023-05-10T02:55:58;14.87;;;7.80;;
6300;SDS011;3183;51.010;6.898;2023-05-10T02:58:27;16.30;;;8.10;;
6300;SDS011;3183;51.010;6.898;2023-05-10T03:00:54;13.33;;;7.67;;
6300;SDS011;3183;51.010;6.898;2023-05-10T03:03:21;15.23;;;8.90;;
6300;SDS011;3183;51.010;6.898;2023-05-10T03:05:48;10.93;;;8.27;;
6300;SDS011;3183;51.010;6.898;2023-05-10T03:08:18;10.83;;;7.07;;
6300;SDS011;3183;51.010;6.898;2023-05-10T03:10:55;10.47;;;7.20;;
6300;SDS011;3183;51.010;6.898;2023-05-10T03:13:28;12.30;;;7.73;;
6300;SDS011;3183;51.010;6.898;2023-05-10T03:15:58;14.13;;;6.90;;
6300;SDS011;3183;51.010;6.898;2023-05-10T03:18:28;15.93;;;7.57;;
6300;SDS011;3183;51.010;6.898;2023-05-10T03:20:57;14.37;;;8.13;;
6300;SDS011;3183;51.010;6.898;2023-05-10T03:23:26;14.43;;;7.33;;
6300;SDS011;3183;51.010;6.898;2023-05-10T03:25:54;22.57;;;7.53;;
6300;SDS011;3183;51.010;6.898;2023-05-10T03:28:21;11.70;;;6.60;;
6300;SDS011;3183;51.010;6.898;2023-05-10T03:30:48;13.00;;;7.20;;
6300;SDS011;3183;51.010;6.898;2023-05-10T03:33:17;12.37;;;7.60;;
6300;SDS011;3183;51.010;6.898;2023-05-10T03:35:45;12.40;;;7.07;;
6300;SDS011;3183;51.010;6.898;2023-05-10T03:38:12;13.80;;;7.60;;
6300;SDS011;3183;51.010;6.898;2023-05-10T03:40:39;13.10;;;6.87;;
6300;SDS011;3183;51.010;6.898;2023-05-10T03:43:06;13.40;;;7.77;;
6300;SDS011;3183;51.010;6.898;2023-05-10T03:45:33;14.27;;;7.23;;
6300;SDS011;3183;51.010;6.898;2023-05-10T03:48:01;25.93;;;8.53;;
6300;SDS011;3183;51.010;6.898;2023-05-10T03:50:29;16.30;;;8.17;;
6300;SDS011;3183;51.010;6.898;2023-05-10T03:52:56;15.03;;;8.50;;
6300;SDS011;3183;51.010;6.898;2023-05-10T03:55:23;15.97;;;8.63;;
6300;SDS011;3183;51.010;6.898;2023-05-10T03:57:51;19.80;;;8.10;;
6300;SDS011;3183;51.010;6.898;2023-05-10T04:00:19;20.03;;;9.60;;
6300;SDS011;3183;51.010;6.898;2023-05-10T04:02:46;22.93;;;10.03;;
6300;SDS011;3183;51.010;6.898;2023-05-10T04:05:13;19.80;;;8.70;;
6300;SDS011;3183;51.010;6.898;2023-05-10T04:07:41;15.83;;;8.60;;
6300;SDS011;3183;51.010;6.898;2023-05-10T04:10:10;19.38;;;10.82;;
6300;SDS011;3183;51.010;6.898;2023-05-10T04:12:37;20.13;;;10.20;;
6300;SDS011;3183;51.010;6.898;2023-05-10T04:15:04;22.03;;;11.23;;
6300;SDS011;3183;51.010;6.898;2023-05-10T04:17:32;20.80;;;11.60;;
6300;SDS011;3183;51.010;6.898;2023-05-10T04:19:59;23.20;;;11.20;;
6300;SDS011;3183;51.010;6.898;2023-05-10T04:22:26;24.63;;;11.07;;
6300;SDS011;3183;51.010;6.898;2023-05-10T04:24:55;23.93;;;12.73;;
6300;SDS011;3183;51.010;6.898;2023-05-10T04:27:22;24.03;;;12.20;;
6300;SDS011;3183;51.010;6.898;2023-05-10T04:29:49;28.80;;;13.20;;
6300;SDS011;3183;51.010;6.898;2023-05-10T04:32:16;26.53;;;13.80;;
6300;SDS011;3183;51.010;6.898;2023-05-10T04:34:45;25.80;;;13.47;;
6300;SDS011;3183;51.010;6.898;2023-05-10T04:37:12;33.70;;;15.67;;
6300;SDS011;3183;51.010;6.898;2023-05-10T04:39:39;30.77;;;16.10;;
6300;SDS011;3183;51.010;6.898;2023-05-10T04:42:07;25.23;;;13.97;;
6300;SDS011;3183;51.010;6.898;2023-05-10T04:44:34;38.40;;;15.97;;
6300;SDS011;3183;51.010;6.898;2023-05-10T04:47:02;32.40;;;16.97;;
6300;SDS011;3183;51.010;6.898;2023-05-10T04:49:29;33.33;;;16.80;;
6300;SDS011;3183;51.010;6.898;2023-05-10T04:51:56;30.75;;;15.50;;
6300;SDS011;3183;51.010;6.898;2023-05-10T04:54:23;28.80;;;15.90;;
6300;SDS011;3183;51.010;6.898;2023-05-10T04:56:50;29.40;;;14.63;;
6300;SDS011;3183;51.010;6.898;2023-05-10T04:59:19;29.83;;;14.80;;
6300;SDS011;3183;51.010;6.898;2023-05-10T05:01:46;30.60;;;14.87;;
6300;SDS011;3183;51.010;6.898;2023-05-10T05:04:13;31.20;;;16.23;;
6300;SDS011;3183;51.010;6.898;2023-05-10T05:06:40;30.50;;;16.13;;
6300;SDS011;3183;51.010;6.898;2023-05-10T05:09:08;28.30;;;15.47;;
6300;SDS011;3183;51.010;6.898;2023-05-10T05:11:36;29.83;;;14.40;;
6300;SDS011;3183;51.010;6.898;2023-05-10T05:14:03;30.43;;;15.20;;
6300;SDS011;3183;51.010;6.898;2023-05-10T05:16:32;25.33;;;14.83;;
6300;SDS011;3183;51.010;6.898;2023-05-10T05:18:59;37.40;;;14.60;;
6300;SDS011;3183;51.010;6.898;2023-05-10T05:21:26;26.97;;;15.90;;
6300;SDS011;3183;51.010;6.898;2023-05-10T05:23:54;24.63;;;14.53;;
6300;SDS011;3183;51.010;6.898;2023-05-10T05:26:21;23.83;;;14.10;;
6300;SDS011;3183;51.010;6.898;2023-05-10T05:28:48;27.80;;;14.17;;
6300;SDS011;3183;51.010;6.898;2023-05-10T05:31:18;32.07;;;15.97;;
6300;SDS011;3183;51.010;6.898;2023-05-10T05:33:47;26.37;;;13.67;;
6300;SDS011;3183;51.010;6.898;2023-05-10T05:36:14;27.27;;;14.33;;
6300;SDS011;3183;51.010;6.898;2023-05-10T05:38:41;34.43;;;14.57;;
6300;SDS011;3183;51.010;6.898;2023-05-10T05:41:08;28.50;;;11.60;;
6300;SDS011;3183;51.010;6.898;2023-05-10T05:43:35;24.17;;;13.70;;
6300;SDS011;3183;51.010;6.898;2023-05-10T05:46:03;27.10;;;11.87;;
6300;SDS011;3183;51.010;6.898;2023-05-10T05:48:30;23.37;;;12.00;;
6300;SDS011;3183;51.010;6.898;2023-05-10T05:50:59;26.33;;;12.77;;
6300;SDS011;3183;51.010;6.898;2023-05-10T05:53:26;30.93;;;13.30;;
6300;SDS011;3183;51.010;6.898;2023-05-10T05:55:54;24.40;;;12.37;;
6300;SDS011;3183;51.010;6.898;2023-05-10T05:58:21;34.13;;;14.13;;
6300;SDS011;3183;51.010;6.898;2023-05-10T06:00:48;25.07;;;11.97;;
6300;SDS011;3183;51.010;6.898;2023-05-10T06:03:16;24.47;;;12.60;;
6300;SDS011;3183;51.010;6.898;2023-05-10T06:05:43;26.93;;;11.30;;
6300;SDS011;3183;51.010;6.898;2023-05-10T06:08:12;19.50;;;11.00;;
6300;SDS011;3183;51.010;6.898;2023-05-10T06:10:39;20.10;;;11.80;;
6300;SDS011;3183;51.010;6.898;2023-05-10T06:13:06;26.27;;;11.67;;
6300;SDS011;3183;51.010;6.898;2023-05-10T06:15:33;21.63;;;11.07;;
6300;SDS011;3183;51.010;6.898;2023-05-10T06:18:00;16.83;;;10.90;;
6300;SDS011;3183;51.010;6.898;2023-05-10T06:20:28;26.00;;;11.90;;
6300;SDS011;3183;51.010;6.898;2023-05-10T06:22:56;21.77;;;11.60;;
6300;SDS011;3183;51.010;6.898;2023-05-10T06:25:25;22.97;;;12.47;;
6300;SDS011;3183;51.010;6.898;2023-05-10T06:27:52;26.77;;;12.93;;
6300;SDS011;3183;51.010;6.898;2023-05-10T06:30:22;22.20;;;11.67;;
6300;SDS011;3183;51.010;6.898;2023-05-10T06:32:52;29.20;;;11.77;;
6300;SDS011;3183;51.010;6.898;2023-05-10T06:35:19;28.40;;;13.63;;
6300;SDS011;3183;51.010;6.898;2023-05-10T06:37:46;29.30;;;12.53;;
6300;SDS011;3183;51.010;6.898;2023-05-10T06:40:14;28.83;;;12.80;;
6300;SDS011;3183;51.010;6.898;2023-05-10T06:42:42;22.67;;;12.10;;
6300;SDS011;3183;51.010;6.898;2023-05-10T06:45:11;27.70;;;13.57;;
6300;SDS011;3183;51.010;6.898;2023-05-10T06:47:39;29.20;;;13.13;;
6300;SDS011;3183;51.010;6.898;2023-05-10T06:50:06;26.03;;;13.83;;
6300;SDS011;3183;51.010;6.898;2023-05-10T06:52:33;27.03;;;14.63;;
6300;SDS011;3183;51.010;6.898;2023-05-10T06:55:01;26.20;;;13.60;;
6300;SDS011;3183;51.010;6.898;2023-05-10T06:57:28;23.10;;;13.20;;
6300;SDS011;3183;51.010;6.898;2023-05-10T06:59:57;25.20;;;13.23;;
6300;SDS011;3183;51.010;6.898;2023-05-10T07:02:24;23.30;;;13.90;;
6300;SDS011;3183;51.010;6.898;2023-05-10T07:04:51;25.87;;;11.97;;
6300;SDS011;3183;51.010;6.898;2023-05-10T07:07:19;24.30;;;13.37;;
6300;SDS011;3183;51.010;6.898;2023-05-10T07:09:46;23.40;;;12.30;;
6300;SDS011;3183;51.010;6.898;2023-05-10T07:12:14;22.90;;;12.50;;
6300;SDS011;3183;51.010;6.898;2023-05-10T07:14:41;27.30;;;12.93;;
6300;SDS011;3183;51.010;6.898;2023-05-10T07:17:10;25.83;;;13.00;;
6300;SDS011;3183;51.010;6.898;2023-05-10T07:19:37;28.67;;;14.40;;
6300;SDS011;3183;51.010;6.898;2023-05-10T07:22:04;33.53;;;13.90;;
6300;SDS011;3183;51.010;6.898;2023-05-10T07:24:32;27.53;;;12.50;;
6300;SDS011;3183;51.010;6.898;2023-05-10T07:26:59;31.63;;;14.43;;
6300;SDS011;3183;51.010;6.898;2023-05-10T07:29:26;23.53;;;13.47;;
6300;SDS011;3183;51.010;6.898;2023-05-10T07:31:54;25.83;;;12.80;;
6300;SDS011;3183;51.010;6.898;2023-05-10T07:34:23;24.63;;;13.10;;
6300;SDS011;3183;51.010;6.898;2023-05-10T07:36:50;23.63;;;12.87;;
6300;SDS011;3183;51.010;6.898;2023-05-10T07:39:17;22.57;;;12.50;;
6300;SDS011;3183;51.010;6.898;2023-05-10T07:41:45;20.77;;;10.90;;
6300;SDS011;3183;51.010;6.898;2023-05-10T07:44:12;20.60;;;11.80;;
6300;SDS011;3183;51.010;6.898;2023-05-10T07:46:39;20.33;;;10.57;;
6300;SDS011;3183;51.010;6.898;2023-05-10T07:49:06;24.53;;;10.87;;
6300;SDS011;3183;51.010;6.898;2023-05-10T07:51:35;23.50;;;11.97;;
6300;SDS011;3183;51.010;6.898;2023-05-10T07:54:02;24.20;;;11.73;;
6300;SDS011;3183;51.010;6.898;2023-05-10T07:56:30;24.13;;;11.87;;
6300;SDS011;3183;51.010;6.898;2023-05-10T07:58:57;35.67;;;11.03;;
6300;SDS011;3183;51.010;6.898;2023-05-10T08:01:25;26.33;;;11.30;;
6300;SDS011;3183;51.010;6.898;2023-05-10T08:03:52;21.50;;;10.87;;
6300;SDS011;3183;51.010;6.898;2023-05-10T08:06:20;17.93;;;10.07;;
6300;SDS011;3183;51.010;6.898;2023-05-10T08:08:48;20.30;;;10.80;;
6300;SDS011;3183;51.010;6.898;2023-05-10T08:11:17;16.90;;;10.13;;
6300;SDS011;3183;51.010;6.898;2023-05-10T08:13:45;18.23;;;10.00;;
6300;SDS011;3183;51.010;6.898;2023-05-10T08:16:13;20.40;;;10.30;;
6300;SDS011;3183;51.010;6.898;2023-05-10T08:18:55;17.87;;;10.53;;
6300;SDS011;3183;51.010;6.898;2023-05-10T08:21:23;17.90;;;10.67;;
6300;SDS011;3183;51.010;6.898;2023-05-10T08:23:52;18.60;;;10.23;;
6300;SDS011;3183;51.010;6.898;2023-05-10T08:26:19;25.87;;;11.23;;
6300;SDS011;3183;51.010;6.898;2023-05-10T08:28:46;18.03;;;9.90;;
6300;SDS011;3183;51.010;6.898;2023-05-10T08:31:14;17.80;;;8.90;;
6300;SDS011;3183;51.010;6.898;2023-05-10T08:33:44;17.57;;;10.10;;
6300;SDS011;3183;51.010;6.898;2023-05-10T08:36:12;19.00;;;10.30;;
6300;SDS011;3183;51.010;6.898;2023-05-10T08:38:44;28.00;;;11.00;;
6300;SDS011;3183;51.010;6.898;2023-05-10T08:41:13;24.13;;;10.20;;
6300;SDS011;3183;51.010;6.898;2023-05-10T08:43:40;20.50;;;10.70;;
6300;SDS011;3183;51.010;6.898;2023-05-10T08:46:11;22.97;;;11.30;;
6300;SDS011;3183;51.010;6.898;2023-05-10T08:48:41;24.23;;;12.00;;
6300;SDS011;3183;51.010;6.898;2023-05-10T08:51:09;22.70;;;11.33;;
6300;SDS011;3183;51.010;6.898;2023-05-10T08:53:37;26.60;;;11.73;;
6300;SDS011;3183;51.010;6.898;2023-05-10T08:56:04;26.53;;;12.03;;
6300;SDS011;3183;51.010;6.898;2023-05-10T08:58:33;25.80;;;12.10;;
6300;SDS011;3183;51.010;6.898;2023-05-10T09:01:00;22.60;;;12.53;;
6300;SDS011;3183;51.010;6.898;2023-05-10T09:03:27;24.53;;;13.37;;
6300;SDS011;3183;51.010;6.898;2023-05-10T09:05:54;25.37;;;12.90;;
6300;SDS011;3183;51.010;6.898;2023-05-10T09:08:22;26.40;;;14.47;;
6300;SDS011;3183;51.010;6.898;2023-05-10T09:10:51;27.03;;;14.50;;
6300;SDS011;3183;51.010;6.898;2023-05-10T09:13:19;30.50;;;14.60;;
6300;SDS011;3183;51.010;6.898;2023-05-10T09:15:48;35.00;;;15.57;;
6300;SDS011;3183;51.010;6.898;2023-05-10T09:18:15;32.80;;;16.57;;
6300;SDS011;3183;51.010;6.898;2023-05-10T09:20:43;32.73;;;16.43;;
6300;SDS011;3183;51.010;6.898;2023-05-10T09:23:10;35.53;;;17.07;;
6300;SDS011;3183;51.010;6.898;2023-05-10T09:25:38;31.20;;;15.50;;
6300;SDS011;3183;51.010;6.898;2023-05-10T09:28:06;39.00;;;16.87;;
6300;SDS011;3183;51.010;6.898;2023-05-10T09:30:33;35.80;;;18.00;;
6300;SDS011;3183;51.010;6.898;2023-05-10T09:33:02;33.97;;;14.90;;
6300;SDS011;3183;51.010;6.898;2023-05-10T09:35:30;35.17;;;15.83;;
6300;SDS011;3183;51.010;6.898;2023-05-10T09:37:59;30.83;;;14.03;;
6300;SDS011;3183;51.010;6.898;2023-05-10T09:40:27;28.67;;;14.87;;
6300;SDS011;3183;51.010;6.898;2023-05-10T09:42:55;25.77;;;14.00;;
6300;SDS011;3183;51.010;6.898;2023-05-10T09:45:23;26.67;;;12.93;;
6300;SDS011;3183;51.010;6.898;2023-05-10T09:47:50;26.40;;;12.53;;
6300;SDS011;3183;51.010;6.898;2023-05-10T09:50:19;23.77;;;12.27;;
6300;SDS011;3183;51.010;6.898;2023-05-10T09:52:48;22.10;;;12.03;;
6300;SDS011;3183;51.010;6.898;2023-05-10T09:55:18;21.17;;;11.63;;
6300;SDS011;3183;51.010;6.898;2023-05-10T09:57:46;21.07;;;11.47;;
6300;SDS011;3183;51.010;6.898;2023-05-10T10:00:17;24.63;;;10.57;;
6300;SDS011;3183;51.010;6.898;2023-05-10T10:02:45;20.27;;;11.33;;
6300;SDS011;3183;51.010;6.898;2023-05-10T10:05:12;18.07;;;9.77;;
6300;SDS011;3183;51.010;6.898;2023-05-10T10:07:41;21.67;;;11.80;;
6300;SDS011;3183;51.010;6.898;2023-05-10T10:10:09;24.53;;;11.30;;
6300;SDS011;3183;51.010;6.898;2023-05-10T10:12:38;22.57;;;11.40;;
6300;SDS011;3183;51.010;6.898;2023-05-10T10:15:05;25.87;;;11.50;;
6300;SDS011;3183;51.010;6.898;2023-05-10T10:17:33;27.63;;;11.70;;
6300;SDS011;3183;51.010;6.898;2023-05-10T10:20:02;22.27;;;11.57;;
6300;SDS011;3183;51.010;6.898;2023-05-10T10:22:29;21.40;;;11.70;;
6300;SDS011;3183;51.010;6.898;2023-05-10T10:24:58;17.07;;;10.43;;
6300;SDS011;3183;51.010;6.898;2023-05-10T10:27:28;19.30;;;10.53;;
6300;SDS011;3183;51.010;6.898;2023-05-10T10:30:01;18.23;;;10.97;;
6300;SDS011;3183;51.010;6.898;2023-05-10T10:32:33;19.13;;;9.97;;
6300;SDS011;3183;51.010;6.898;2023-05-10T10:35:05;22.17;;;11.80;;
6300;SDS011;3183;51.010;6.898;2023-05-10T10:37:46;13.27;;;8.90;;
6300;SDS011;3183;51.010;6.898;2023-05-10T10:40:24;18.67;;;9.10;;
6300;SDS011;3183;51.010;6.898;2023-05-10T10:42:52;15.80;;;9.20;;
6300;SDS011;3183;51.010;6.898;2023-05-10T10:45:19;17.30;;;9.13;;
6300;SDS011;3183;51.010;6.898;2023-05-10T10:47:47;16.77;;;9.13;;
6300;SDS011;3183;51.010;6.898;2023-05-10T10:50:15;18.57;;;9.90;;
6300;SDS011;3183;51.010;6.898;2023-05-10T10:52:42;17.03;;;8.40;;
6300;SDS011;3183;51.010;6.898;2023-05-10T10:55:10;12.27;;;7.73;;
6300;SDS011;3183;51.010;6.898;2023-05-10T10:57:45;13.93;;;8.10;;
6300;SDS011;3183;51.010;6.898;2023-05-10T11:00:24;10.73;;;6.40;;
6300;SDS011;3183;51.010;6.898;2023-05-10T11:02:52;11.17;;;7.17;;
6300;SDS011;3183;51.010;6.898;2023-05-10T11:05:23;11.77;;;6.80;;
6300;SDS011;3183;51.010;6.898;2023-05-10T11:07:54;10.80;;;7.20;;
6300;SDS011;3183;51.010;6.898;2023-05-10T11:10:21;17.07;;;8.17;;
6300;SDS011;3183;51.010;6.898;2023-05-10T11:12:53;12.07;;;6.13;;
6300;SDS011;3183;51.010;6.898;2023-05-10T11:15:24;11.73;;;6.20;;
6300;SDS011;3183;51.010;6.898;2023-05-10T11:17:55;11.50;;;5.93;;
6300;SDS011;3183;51.010;6.898;2023-05-10T11:20:22;12.50;;;6.43;;
6300;SDS011;3183;51.010;6.898;2023-05-10T11:22:54;10.03;;;5.70;;
6300;SDS011;3183;51.010;6.898;2023-05-10T11:25:26;9.70;;;5.97;;
6300;SDS011;3183;51.010;6.898;2023-05-10T11:27:54;8.80;;;5.50;;
6300;SDS011;3183;51.010;6.898;2023-05-10T11:30:21;10.53;;;5.67;;
6300;SDS011;3183;51.010;6.898;2023-05-10T11:32:49;9.40;;;5.47;;
6300;SDS011;3183;51.010;6.898;2023-05-10T11:35:16;11.57;;;6.80;;
6300;SDS011;3183;51.010;6.898;2023-05-10T11:37:43;8.10;;;5.37;;
6300;SDS011;3183;51.010;6.898;2023-05-10T11:40:14;8.70;;;5.00;;
6300;SDS011;3183;51.010;6.898;2023-05-10T11:42:41;9.67;;;5.70;;
6300;SDS011;3183;51.010;6.898;2023-05-10T11:45:10;7.30;;;4.93;;
6300;SDS011;3183;51.010;6.898;2023-05-10T11:47:37;8.80;;;5.13;;
6300;SDS011;3183;51.010;6.898;2023-05-10T11:50:07;8.50;;;3.93;;
6300;SDS011;3183;51.010;6.898;2023-05-10T11:52:35;6.40;;;4.00;;
6300;SDS011;3183;51.010;6.898;2023-05-10T11:55:03;6.20;;;4.33;;
6300;SDS011;3183;51.010;6.898;2023-05-10T11:57:30;4.90;;;3.63;;
6300;SDS011;3183;51.010;6.898;2023-05-10T11:59:57;4.93;;;2.87;;
6300;SDS011;3183;51.010;6.898;2023-05-10T12:02:28;4.37;;;2.70;;
6300;SDS011;3183;51.010;6.898;2023-05-10T12:04:56;3.73;;;3.33;;
6300;SDS011;3183;51.010;6.898;2023-05-10T12:07:23;4.47;;;3.40;;
6300;SDS011;3183;51.010;6.898;2023-05-10T12:10:02;4.93;;;2.63;;
6300;SDS011;3183;51.010;6.898;2023-05-10T12:12:34;6.32;;;2.00;;
6300;SDS011;3183;51.010;6.898;2023-05-10T12:15:02;4.80;;;2.13;;
6300;SDS011;3183;51.010;6.898;2023-05-10T12:17:30;5.80;;;1.87;;
6300;SDS011;3183;51.010;6.898;2023-05-10T12:19:58;4.07;;;2.03;;
6300;SDS011;3183;51.010;6.898;2023-05-10T12:22:25;2.87;;;1.87;;
6300;SDS011;3183;51.010;6.898;2023-05-10T12:24:53;3.53;;;1.50;;
6300;SDS011;3183;51.010;6.898;2023-05-10T12:27:20;2.50;;;1.60;;
6300;SDS011;3183;51.010;6.898;2023-05-10T12:29:47;1.60;;;1.40;;
6300;SDS011;3183;51.010;6.898;2023-05-10T12:32:14;1.93;;;1.63;;
6300;SDS011;3183;51.010;6.898;2023-05-10T12:34:43;3.03;;;1.97;;
6300;SDS011;3183;51.010;6.898;2023-05-10T12:37:13;3.80;;;1.80;;
6300;SDS011;3183;51.010;6.898;2023-05-10T12:39:41;4.03;;;2.90;;
6300;SDS011;3183;51.010;6.898;2023-05-10T12:42:08;12.03;;;2.83;;
6300;SDS011;3183;51.010;6.898;2023-05-10T12:44:35;7.13;;;2.77;;
6300;SDS011;3183;51.010;6.898;2023-05-10T12:47:02;2.73;;;2.23;;
6300;SDS011;3183;51.010;6.898;2023-05-10T12:49:30;4.23;;;2.53;;
6300;SDS011;3183;51.010;6.898;2023-05-10T12:51:59;2.97;;;2.53;;
6300;SDS011;3183;51.010;6.898;2023-05-10T12:54:26;2.60;;;2.10;;
6300;SDS011;3183;51.010;6.898;2023-05-10T12:56:53;2.47;;;2.27;;
6300;SDS011;3183;51.010;6.898;2023-05-10T12:59:20;2.97;;;2.20;;
6300;SDS011;3183;51.010;6.898;2023-05-10T13:01:47;2.50;;;1.60;;
6300;SDS011;3183;51.010;6.898;2023-05-10T13:04:15;2.23;;;1.73;;
6300;SDS011;3183;51.010;6.898;2023-05-10T13:06:42;3.33;;;2.50;;
6300;SDS011;3183;51.010;6.898;2023-05-10T13:09:10;6.07;;;2.27;;
6300;SDS011;3183;51.010;6.898;2023-05-10T13:11:37;3.47;;;2.17;;
6300;SDS011;3183;51.010;6.898;2023-05-10T13:14:04;4.50;;;2.80;;
6300;SDS011;3183;51.010;6.898;2023-05-10T13:16:32;4.23;;;2.20;;
6300;SDS011;3183;51.010;6.898;2023-05-10T13:18:59;6.00;;;2.17;;
6300;SDS011;3183;51.010;6.898;2023-05-10T13:21:26;4.87;;;2.40;;
6300;SDS011;3183;51.010;6.898;2023-05-10T13:23:53;3.47;;;2.40;;
6300;SDS011;3183;51.010;6.898;2023-05-10T13:26:21;3.27;;;2.73;;
6300;SDS011;3183;51.010;6.898;2023-05-10T13:28:49;4.27;;;2.87;;
6300;SDS011;3183;51.010;6.898;2023-05-10T13:31:16;5.27;;;2.57;;
6300;SDS011;3183;51.010;6.898;2023-05-10T13:33:43;4.53;;;2.63;;
6300;SDS011;3183;51.010;6.898;2023-05-10T13:36:10;7.67;;;3.00;;
6300;SDS011;3183;51.010;6.898;2023-05-10T13:38:38;4.03;;;3.27;;
6300;SDS011;3183;51.010;6.898;2023-05-10T13:41:05;5.73;;;2.53;;
6300;SDS011;3183;51.010;6.898;2023-05-10T13:43:33;4.97;;;2.10;;
6300;SDS011;3183;51.010;6.898;2023-05-10T13:46:01;6.90;;;2.30;;
6300;SDS011;3183;51.010;6.898;2023-05-10T13:48:28;2.90;;;2.37;;
6300;SDS011;3183;51.010;6.898;2023-05-10T13:50:55;3.67;;;2.40;;
6300;SDS011;3183;51.010;6.898;2023-05-10T13:53:23;3.93;;;2.20;;
6300;SDS011;3183;51.010;6.898;2023-05-10T13:55:50;5.63;;;2.30;;
6300;SDS011;3183;51.010;6.898;2023-05-10T13:58:17;5.83;;;2.40;;
6300;SDS011;3183;51.010;6.898;2023-05-10T14:00:45;3.00;;;2.20;;
6300;SDS011;3183;51.010;6.898;2023-05-10T14:03:13;4.30;;;2.23;;
6300;SDS011;3183;51.010;6.898;2023-05-10T14:05:40;9.97;;;2.40;;
6300;SDS011;3183;51.010;6.898;2023-05-10T14:08:07;2.00;;;1.50;;
6300;SDS011;3183;51.010;6.898;2023-05-10T14:10:34;2.63;;;1.83;;
6300;SDS011;3183;51.010;6.898;2023-05-10T14:13:03;2.30;;;1.60;;
6300;SDS011;3183;51.010;6.898;2023-05-10T14:15:30;1.30;;;1.20;;
6300;SDS011;3183;51.010;6.898;2023-05-10T14:17:58;3.67;;;1.63;;
6300;SDS011;3183;51.010;6.898;2023-05-10T14:20:25;2.23;;;1.60;;
6300;SDS011;3183;51.010;6.898;2023-05-10T14:22:52;3.53;;;1.80;;
6300;SDS011;3183;51.010;6.898;2023-05-10T14:25:20;2.70;;;1.90;;
6300;SDS011;3183;51.010;6.898;2023-05-10T14:27:47;1.67;;;1.10;;
6300;SDS011;3183;51.010;6.898;2023-05-10T14:30:14;2.00;;;1.47;;
6300;SDS011;3183;51.010;6.898;2023-05-10T14:32:41;3.17;;;1.50;;
6300;SDS011;3183;51.010;6.898;2023-05-10T14:35:10;3.53;;;1.83;;
6300;SDS011;3183;51.010;6.898;2023-05-10T14:37:37;3.40;;;1.57;;
6300;SDS011;3183;51.010;6.898;2023-05-10T14:40:05;2.80;;;2.17;;
6300;SDS011;3183;51.010;6.898;2023-05-10T14:42:34;3.57;;;2.53;;
6300;SDS011;3183;51.010;6.898;2023-05-10T14:45:01;4.57;;;2.43;;
6300;SDS011;3183;51.010;6.898;2023-05-10T14:47:28;2.97;;;2.67;;
6300;SDS011;3183;51.010;6.898;2023-05-10T14:49:56;3.30;;;2.30;;
6300;SDS011;3183;51.010;6.898;2023-05-10T14:52:24;5.17;;;2.70;;
6300;SDS011;3183;51.010;6.898;2023-05-10T14:54:51;5.60;;;3.50;;
6300;SDS011;3183;51.010;6.898;2023-05-10T14:57:18;3.83;;;2.90;;
6300;SDS011;3183;51.010;6.898;2023-05-10T14:59:46;10.23;;;6.27;;
6300;SDS011;3183;51.010;6.898;2023-05-10T15:02:13;9.60;;;5.60;;
6300;SDS011;3183;51.010;6.898;2023-05-10T15:04:41;5.60;;;4.37;;
6300;SDS011;3183;51.010;6.898;2023-05-10T15:07:08;4.97;;;3.40;;
6300;SDS011;3183;51.010;6.898;2023-05-10T15:09:40;11.37;;;4.00;;